sensor_id;sensor_type;location;lat;lon;timestamp;temperature;humidity
6940;DHT22;3509;48.510;9.076;2022-08-19T00:00:25;17.70;99.90
6940;DHT22;3509;48.510;9.076;2022-08-19T00:02:50;17.80;99.90
6940;DHT22;3509;48.510;9.076;2022-08-19T00:05:17;17.80;99.90
6940;DHT22;3509;48.510;9.076;2022-08-19T00:07:44;17.70;99.90
6940;DHT22;3509;48.510;9.076;2022-08-19T00:10:12;17.70;99.90
6940;DHT22;3509;48.510;9.076;2022-08-19T00:12:38;17.70;99.90
6940;DHT22;3509;48.510;9.076;2022-08-19T00:15:07;17.70;99.90
6940;DHT22;3509;48.510;9.076;2022-08-19T00:17:35;17.70;99.90
6940;DHT22;3509;48.510;9.076;2022-08-19T00:20:02;17.70;99.90
6940;DHT22;3509;48.510;9.076;2022-08-19T00:22:27;17.70;99.90
6940;DHT22;3509;48.510;9.076;2022-08-19T00:24:54;17.70;99.90
6940;DHT22;3509;48.510;9.076;2022-08-19T00:27:19;17.60;99.90
6940;DHT22;3509;48.510;9.076;2022-08-19T00:29:45;17.60;99.90
6940;DHT22;3509;48.510;9.076;2022-08-19T00:32:11;17.60;99.90
6940;DHT22;3509;48.510;9.076;2022-08-19T00:34:37;17.60;99.90
6940;DHT22;3509;48.510;9.076;2022-08-19T00:37:03;17.60;99.90
6940;DHT22;3509;48.510;9.076;2022-08-19T00:39:28;17.70;99.90
6940;DHT22;3509;48.510;9.076;2022-08-19T00:41:55;17.70;99.90
6940;DHT22;3509;48.510;9.076;2022-08-19T00:44:26;17.70;99.90
6940;DHT22;3509;48.510;9.076;2022-08-19T00:46:55;17.70;99.90
6940;DHT22;3509;48.510;9.076;2022-08-19T00:52:07;17.50;99.90
6940;DHT22;3509;48.510;9.076;2022-08-19T00:54:35;17.50;99.90
6940;DHT22;3509;48.510;9.076;2022-08-19T00:57:05;17.50;99.90
6940;DHT22;3509;48.510;9.076;2022-08-19T00:59:31;17.50;99.90
6940;DHT22;3509;48.510;9.076;2022-08-19T01:01:58;17.50;99.90
6940;DHT22;3509;48.510;9.076;2022-08-19T01:04:23;17.40;99.90
6940;DHT22;3509;48.510;9.076;2022-08-19T01:06:49;17.40;99.90
6940;DHT22;3509;48.510;9.076;2022-08-19T01:09:15;17.40;99.90
6940;DHT22;3509;48.510;9.076;2022-08-19T01:11:42;17.40;99.90
6940;DHT22;3509;48.510;9.076;2022-08-19T01:14:09;17.40;99.90
6940;DHT22;3509;48.510;9.076;2022-08-19T01:16:36;17.40;99.90
6940;DHT22;3509;48.510;9.076;2022-08-19T01:19:03;17.40;99.90
6940;DHT22;3509;48.510;9.076;2022-08-19T01:21:44;17.30;99.90
6940;DHT22;3509;48.510;9.076;2022-08-19T01:24:12;17.30;99.90
6940;DHT22;3509;48.510;9.076;2022-08-19T01:26:42;17.30;99.90
6940;DHT22;3509;48.510;9.076;2022-08-19T01:29:09;17.30;99.90
6940;DHT22;3509;48.510;9.076;2022-08-19T01:31:35;17.30;99.90
6940;DHT22;3509;48.510;9.076;2022-08-19T01:34:02;17.20;99.90
6940;DHT22;3509;48.510;9.076;2022-08-19T01:36:41;17.20;99.90
6940;DHT22;3509;48.510;9.076;2022-08-19T01:39:10;17.20;99.90
6940;DHT22;3509;48.510;9.076;2022-08-19T01:41:36;17.20;99.90
6940;DHT22;3509;48.510;9.076;2022-08-19T01:44:04;17.20;99.90
6940;DHT22;3509;48.510;9.076;2022-08-19T01:46:31;17.20;99.90
6940;DHT22;3509;48.510;9.076;2022-08-19T01:48:58;17.20;99.90
6940;DHT22;3509;48.510;9.076;2022-08-19T01:51:24;17.10;99.90
6940;DHT22;3509;48.510;9.076;2022-08-19T01:53:50;17.20;99.90
6940;DHT22;3509;48.510;9.076;2022-08-19T01:56:17;17.10;99.90
6940;DHT22;3509;48.510;9.076;2022-08-19T01:58:54;17.10;99.90
6940;DHT22;3509;48.510;9.076;2022-08-19T02:01:20;17.10;99.90
6940;DHT22;3509;48.510;9.076;2022-08-19T02:03:46;17.10;99.90
6940;DHT22;3509;48.510;9.076;2022-08-19T02:06:12;17.10;99.90
6940;DHT22;3509;48.510;9.076;2022-08-19T02:08:39;17.10;99.90
6940;DHT22;3509;48.510;9.076;2022-08-19T02:11:06;17.10;99.90
6940;DHT22;3509;48.510;9.076;2022-08-19T02:13:33;17.10;99.90
6940;DHT22;3509;48.510;9.076;2022-08-19T02:15:59;17.00;99.90
6940;DHT22;3509;48.510;9.076;2022-08-19T02:18:25;17.00;99.90
6940;DHT22;3509;48.510;9.076;2022-08-19T02:20:52;17.00;99.90
6940;DHT22;3509;48.510;9.076;2022-08-19T02:23:17;17.00;99.90
6940;DHT22;3509;48.510;9.076;2022-08-19T02:25:45;16.90;99.90
6940;DHT22;3509;48.510;9.076;2022-08-19T02:28:11;17.00;99.90
6940;DHT22;3509;48.510;9.076;2022-08-19T02:30:38;16.90;99.90
6940;DHT22;3509;48.510;9.076;2022-08-19T02:33:04;17.00;99.90
6940;DHT22;3509;48.510;9.076;2022-08-19T02:35:31;16.90;99.90
6940;DHT22;3509;48.510;9.076;2022-08-19T02:37:57;16.90;99.90
6940;DHT22;3509;48.510;9.076;2022-08-19T02:41:01;16.90;99.90
6940;DHT22;3509;48.510;9.076;2022-08-19T02:43:29;16.80;99.90
6940;DHT22;3509;48.510;9.076;2022-08-19T02:45:55;16.80;99.90
6940;DHT22;3509;48.510;9.076;2022-08-19T02:48:23;16.80;99.90
6940;DHT22;3509;48.510;9.076;2022-08-19T02:50:51;16.80;99.90
6940;DHT22;3509;48.510;9.076;2022-08-19T02:53:24;16.80;99.90
6940;DHT22;3509;48.510;9.076;2022-08-19T02:55:51;16.70;99.90
6940;DHT22;3509;48.510;9.076;2022-08-19T02:58:18;16.70;99.90
6940;DHT22;3509;48.510;9.076;2022-08-19T03:00:47;16.80;99.90
6940;DHT22;3509;48.510;9.076;2022-08-19T03:03:14;16.70;99.90
6940;DHT22;3509;48.510;9.076;2022-08-19T03:05:41;16.70;99.90
6940;DHT22;3509;48.510;9.076;2022-08-19T03:08:07;16.70;99.90
6940;DHT22;3509;48.510;9.076;2022-08-19T03:10:44;16.70;99.90
6940;DHT22;3509;48.510;9.076;2022-08-19T03:13:12;16.70;99.90
6940;DHT22;3509;48.510;9.076;2022-08-19T03:15:45;16.70;99.90
6940;DHT22;3509;48.510;9.076;2022-08-19T03:18:12;16.70;99.90
6940;DHT22;3509;48.510;9.076;2022-08-19T03:20:45;16.70;99.90
6940;DHT22;3509;48.510;9.076;2022-08-19T03:23:12;16.70;99.90
6940;DHT22;3509;48.510;9.076;2022-08-19T03:25:44;16.70;99.90
6940;DHT22;3509;48.510;9.076;2022-08-19T03:28:14;16.70;99.90
6940;DHT22;3509;48.510;9.076;2022-08-19T03:30:41;16.70;99.90
6940;DHT22;3509;48.510;9.076;2022-08-19T03:33:09;16.70;99.90
6940;DHT22;3509;48.510;9.076;2022-08-19T03:35:35;16.60;99.90
6940;DHT22;3509;48.510;9.076;2022-08-19T03:38:05;16.70;99.90
6940;DHT22;3509;48.510;9.076;2022-08-19T03:40:32;16.60;99.90
6940;DHT22;3509;48.510;9.076;2022-08-19T03:43:00;16.60;99.90
6940;DHT22;3509;48.510;9.076;2022-08-19T03:45:25;16.60;99.90
6940;DHT22;3509;48.510;9.076;2022-08-19T03:47:53;16.60;99.90
6940;DHT22;3509;48.510;9.076;2022-08-19T03:50:18;16.60;99.90
6940;DHT22;3509;48.510;9.076;2022-08-19T03:52:50;16.60;99.90
6940;DHT22;3509;48.510;9.076;2022-08-19T03:55:17;16.50;99.90
6940;DHT22;3509;48.510;9.076;2022-08-19T03:57:44;16.50;99.90
6940;DHT22;3509;48.510;9.076;2022-08-19T04:00:11;16.60;99.90
6940;DHT22;3509;48.510;9.076;2022-08-19T04:02:37;16.60;99.90
6940;DHT22;3509;48.510;9.076;2022-08-19T04:05:03;16.50;99.90
6940;DHT22;3509;48.510;9.076;2022-08-19T04:07:29;16.60;99.90
6940;DHT22;3509;48.510;9.076;2022-08-19T04:09:54;16.60;99.90
6940;DHT22;3509;48.510;9.076;2022-08-19T04:12:20;16.60;99.90
6940;DHT22;3509;48.510;9.076;2022-08-19T04:14:46;16.60;99.90
6940;DHT22;3509;48.510;9.076;2022-08-19T04:17:12;16.60;99.90
6940;DHT22;3509;48.510;9.076;2022-08-19T04:19:39;16.60;99.90
6940;DHT22;3509;48.510;9.076;2022-08-19T04:22:05;16.50;99.90
6940;DHT22;3509;48.510;9.076;2022-08-19T04:24:32;16.60;99.90
6940;DHT22;3509;48.510;9.076;2022-08-19T04:29:29;16.50;99.90
6940;DHT22;3509;48.510;9.076;2022-08-19T04:31:56;16.60;99.90
6940;DHT22;3509;48.510;9.076;2022-08-19T04:34:24;16.50;99.90
6940;DHT22;3509;48.510;9.076;2022-08-19T04:36:52;16.50;99.90
6940;DHT22;3509;48.510;9.076;2022-08-19T04:39:23;16.50;99.90
6940;DHT22;3509;48.510;9.076;2022-08-19T04:42:08;16.50;99.90
6940;DHT22;3509;48.510;9.076;2022-08-19T04:44:52;16.60;99.90
6940;DHT22;3509;48.510;9.076;2022-08-19T04:47:18;16.60;99.90
6940;DHT22;3509;48.510;9.076;2022-08-19T04:49:44;16.50;99.90
6940;DHT22;3509;48.510;9.076;2022-08-19T04:52:09;16.60;99.90
6940;DHT22;3509;48.510;9.076;2022-08-19T04:54:35;16.60;99.90
6940;DHT22;3509;48.510;9.076;2022-08-19T04:57:00;16.60;99.90
6940;DHT22;3509;48.510;9.076;2022-08-19T04:59:26;16.60;99.90
6940;DHT22;3509;48.510;9.076;2022-08-19T05:01:52;16.70;99.90
6940;DHT22;3509;48.510;9.076;2022-08-19T05:04:19;16.70;99.90
6940;DHT22;3509;48.510;9.076;2022-08-19T05:06:47;16.70;99.90
6940;DHT22;3509;48.510;9.076;2022-08-19T05:09:13;16.70;99.90
6940;DHT22;3509;48.510;9.076;2022-08-19T05:11:39;16.70;99.90
6940;DHT22;3509;48.510;9.076;2022-08-19T05:14:06;16.80;99.90
6940;DHT22;3509;48.510;9.076;2022-08-19T05:16:32;16.80;99.90
6940;DHT22;3509;48.510;9.076;2022-08-19T05:18:58;16.80;99.90
6940;DHT22;3509;48.510;9.076;2022-08-19T05:21:42;16.90;99.90
6940;DHT22;3509;48.510;9.076;2022-08-19T05:24:28;16.80;99.90
6940;DHT22;3509;48.510;9.076;2022-08-19T05:26:55;16.80;99.90
6940;DHT22;3509;48.510;9.076;2022-08-19T05:29:26;16.80;99.90
6940;DHT22;3509;48.510;9.076;2022-08-19T05:31:53;16.90;99.90
6940;DHT22;3509;48.510;9.076;2022-08-19T05:34:20;16.90;99.90
6940;DHT22;3509;48.510;9.076;2022-08-19T05:36:50;16.90;99.90
6940;DHT22;3509;48.510;9.076;2022-08-19T05:39:19;16.90;99.90
6940;DHT22;3509;48.510;9.076;2022-08-19T05:41:57;16.90;99.90
6940;DHT22;3509;48.510;9.076;2022-08-19T05:44:25;16.90;99.90
6940;DHT22;3509;48.510;9.076;2022-08-19T05:46:51;17.00;99.90
6940;DHT22;3509;48.510;9.076;2022-08-19T05:49:22;16.90;99.90
6940;DHT22;3509;48.510;9.076;2022-08-19T05:51:49;17.00;99.90
6940;DHT22;3509;48.510;9.076;2022-08-19T05:54:14;17.00;99.90
6940;DHT22;3509;48.510;9.076;2022-08-19T05:56:41;17.00;99.90
6940;DHT22;3509;48.510;9.076;2022-08-19T05:59:09;17.00;99.90
6940;DHT22;3509;48.510;9.076;2022-08-19T06:01:38;17.10;99.90
6940;DHT22;3509;48.510;9.076;2022-08-19T06:04:04;17.10;99.90
6940;DHT22;3509;48.510;9.076;2022-08-19T06:06:30;17.10;99.90
6940;DHT22;3509;48.510;9.076;2022-08-19T06:08:55;17.10;99.90
6940;DHT22;3509;48.510;9.076;2022-08-19T06:11:31;17.10;99.90
6940;DHT22;3509;48.510;9.076;2022-08-19T06:14:07;17.20;99.90
6940;DHT22;3509;48.510;9.076;2022-08-19T06:16:35;17.20;99.90
6940;DHT22;3509;48.510;9.076;2022-08-19T06:19:03;17.20;99.90
6940;DHT22;3509;48.510;9.076;2022-08-19T06:21:32;17.20;99.90
6940;DHT22;3509;48.510;9.076;2022-08-19T06:23:58;17.20;99.90
6940;DHT22;3509;48.510;9.076;2022-08-19T06:26:24;17.10;99.90
6940;DHT22;3509;48.510;9.076;2022-08-19T06:28:51;17.20;99.90
6940;DHT22;3509;48.510;9.076;2022-08-19T06:31:20;17.20;99.90
6940;DHT22;3509;48.510;9.076;2022-08-19T06:33:47;17.30;99.90
6940;DHT22;3509;48.510;9.076;2022-08-19T06:36:23;17.40;99.90
6940;DHT22;3509;48.510;9.076;2022-08-19T06:38:53;17.40;99.90
6940;DHT22;3509;48.510;9.076;2022-08-19T06:41:19;17.50;99.90
6940;DHT22;3509;48.510;9.076;2022-08-19T06:43:45;17.60;99.90
6940;DHT22;3509;48.510;9.076;2022-08-19T06:46:15;17.60;99.90
6940;DHT22;3509;48.510;9.076;2022-08-19T06:48:41;17.60;99.90
6940;DHT22;3509;48.510;9.076;2022-08-19T06:51:07;17.60;99.90
6940;DHT22;3509;48.510;9.076;2022-08-19T06:53:33;17.60;99.90
6940;DHT22;3509;48.510;9.076;2022-08-19T06:55:59;17.60;99.90
6940;DHT22;3509;48.510;9.076;2022-08-19T06:58:29;17.60;99.90
6940;DHT22;3509;48.510;9.076;2022-08-19T07:01:01;17.70;99.90
6940;DHT22;3509;48.510;9.076;2022-08-19T07:03:30;17.70;99.90
6940;DHT22;3509;48.510;9.076;2022-08-19T07:05:57;17.80;99.90
6940;DHT22;3509;48.510;9.076;2022-08-19T07:08:24;17.80;99.90
6940;DHT22;3509;48.510;9.076;2022-08-19T07:10:52;17.90;99.90
6940;DHT22;3509;48.510;9.076;2022-08-19T07:13:17;17.90;99.90
6940;DHT22;3509;48.510;9.076;2022-08-19T07:15:44;17.90;99.90
6940;DHT22;3509;48.510;9.076;2022-08-19T07:18:11;18.00;99.90
6940;DHT22;3509;48.510;9.076;2022-08-19T07:20:37;18.00;99.90
6940;DHT22;3509;48.510;9.076;2022-08-19T07:23:04;18.00;99.90
6940;DHT22;3509;48.510;9.076;2022-08-19T07:25:29;18.00;99.90
6940;DHT22;3509;48.510;9.076;2022-08-19T07:27:55;17.90;99.90
6940;DHT22;3509;48.510;9.076;2022-08-19T07:30:21;18.00;99.90
6940;DHT22;3509;48.510;9.076;2022-08-19T07:32:48;18.00;99.90
6940;DHT22;3509;48.510;9.076;2022-08-19T07:35:16;17.90;99.90
6940;DHT22;3509;48.510;9.076;2022-08-19T07:37:45;17.90;99.90
6940;DHT22;3509;48.510;9.076;2022-08-19T07:40:12;17.80;99.90
6940;DHT22;3509;48.510;9.076;2022-08-19T07:42:37;17.80;99.90
6940;DHT22;3509;48.510;9.076;2022-08-19T07:45:05;17.80;99.90
6940;DHT22;3509;48.510;9.076;2022-08-19T07:47:31;17.80;99.90
6940;DHT22;3509;48.510;9.076;2022-08-19T07:49:56;17.80;99.90
6940;DHT22;3509;48.510;9.076;2022-08-19T07:52:22;17.80;99.90
6940;DHT22;3509;48.510;9.076;2022-08-19T07:54:48;17.90;99.90
6940;DHT22;3509;48.510;9.076;2022-08-19T07:57:15;17.90;99.90
6940;DHT22;3509;48.510;9.076;2022-08-19T07:59:41;17.90;99.90
6940;DHT22;3509;48.510;9.076;2022-08-19T08:02:08;17.90;99.90
6940;DHT22;3509;48.510;9.076;2022-08-19T08:04:34;17.90;99.90
6940;DHT22;3509;48.510;9.076;2022-08-19T08:07:18;17.90;99.90
6940;DHT22;3509;48.510;9.076;2022-08-19T08:10:05;18.00;99.90
6940;DHT22;3509;48.510;9.076;2022-08-19T08:12:35;18.00;99.90
6940;DHT22;3509;48.510;9.076;2022-08-19T08:15:07;18.00;99.90
6940;DHT22;3509;48.510;9.076;2022-08-19T08:17:34;18.00;99.90
6940;DHT22;3509;48.510;9.076;2022-08-19T08:19:59;18.00;99.90
6940;DHT22;3509;48.510;9.076;2022-08-19T08:22:25;18.10;99.90
6940;DHT22;3509;48.510;9.076;2022-08-19T08:25:13;18.10;99.90
6940;DHT22;3509;48.510;9.076;2022-08-19T08:27:41;18.20;99.90
6940;DHT22;3509;48.510;9.076;2022-08-19T08:30:11;18.20;99.90
6940;DHT22;3509;48.510;9.076;2022-08-19T08:32:38;18.10;99.90
6940;DHT22;3509;48.510;9.076;2022-08-19T08:35:05;18.10;99.90
6940;DHT22;3509;48.510;9.076;2022-08-19T08:37:31;18.10;99.90
6940;DHT22;3509;48.510;9.076;2022-08-19T08:39:57;18.00;99.90
6940;DHT22;3509;48.510;9.076;2022-08-19T08:42:35;18.10;99.90
6940;DHT22;3509;48.510;9.076;2022-08-19T08:45:11;18.10;99.90
6940;DHT22;3509;48.510;9.076;2022-08-19T08:47:43;18.10;99.90
6940;DHT22;3509;48.510;9.076;2022-08-19T08:50:27;18.00;99.90
6940;DHT22;3509;48.510;9.076;2022-08-19T08:52:57;18.00;99.90
6940;DHT22;3509;48.510;9.076;2022-08-19T08:55:26;18.00;99.90
6940;DHT22;3509;48.510;9.076;2022-08-19T08:57:53;18.00;99.90
6940;DHT22;3509;48.510;9.076;2022-08-19T09:00:38;18.00;99.90
6940;DHT22;3509;48.510;9.076;2022-08-19T09:03:26;18.00;99.90
6940;DHT22;3509;48.510;9.076;2022-08-19T09:06:02;18.00;99.90
6940;DHT22;3509;48.510;9.076;2022-08-19T09:08:32;18.00;99.90
6940;DHT22;3509;48.510;9.076;2022-08-19T09:11:09;18.10;99.90
6940;DHT22;3509;48.510;9.076;2022-08-19T09:16:08;18.10;99.90
6940;DHT22;3509;48.510;9.076;2022-08-19T09:21:04;18.10;99.90
6940;DHT22;3509;48.510;9.076;2022-08-19T09:23:30;18.10;99.90
6940;DHT22;3509;48.510;9.076;2022-08-19T09:25:55;18.10;99.90
6940;DHT22;3509;48.510;9.076;2022-08-19T09:28:21;18.10;99.90
6940;DHT22;3509;48.510;9.076;2022-08-19T09:30:47;18.10;99.90
6940;DHT22;3509;48.510;9.076;2022-08-19T09:33:12;18.10;99.90
6940;DHT22;3509;48.510;9.076;2022-08-19T09:35:38;18.10;99.90
6940;DHT22;3509;48.510;9.076;2022-08-19T09:38:04;18.10;99.90
6940;DHT22;3509;48.510;9.076;2022-08-19T09:40:30;18.10;99.90
6940;DHT22;3509;48.510;9.076;2022-08-19T09:42:56;18.00;99.90
6940;DHT22;3509;48.510;9.076;2022-08-19T09:45:22;18.00;99.90
6940;DHT22;3509;48.510;9.076;2022-08-19T09:47:52;18.00;99.90
6940;DHT22;3509;48.510;9.076;2022-08-19T09:50:18;17.90;99.90
6940;DHT22;3509;48.510;9.076;2022-08-19T09:52:44;17.90;99.90
6940;DHT22;3509;48.510;9.076;2022-08-19T09:55:10;18.00;99.90
6940;DHT22;3509;48.510;9.076;2022-08-19T09:57:37;18.10;99.90
6940;DHT22;3509;48.510;9.076;2022-08-19T10:00:08;18.10;99.90
6940;DHT22;3509;48.510;9.076;2022-08-19T10:02:34;18.20;99.90
6940;DHT22;3509;48.510;9.076;2022-08-19T10:05:00;18.30;99.90
6940;DHT22;3509;48.510;9.076;2022-08-19T10:07:45;18.30;99.90
6940;DHT22;3509;48.510;9.076;2022-08-19T10:10:11;18.30;99.90
6940;DHT22;3509;48.510;9.076;2022-08-19T10:12:37;18.30;99.90
6940;DHT22;3509;48.510;9.076;2022-08-19T10:15:04;18.30;99.90
6940;DHT22;3509;48.510;9.076;2022-08-19T10:17:31;18.30;99.90
6940;DHT22;3509;48.510;9.076;2022-08-19T10:19:59;18.30;99.90
6940;DHT22;3509;48.510;9.076;2022-08-19T10:22:25;18.40;99.90
6940;DHT22;3509;48.510;9.076;2022-08-19T10:24:50;18.30;99.90
6940;DHT22;3509;48.510;9.076;2022-08-19T10:27:17;18.30;99.90
6940;DHT22;3509;48.510;9.076;2022-08-19T10:29:42;18.40;99.90
6940;DHT22;3509;48.510;9.076;2022-08-19T10:32:09;18.30;99.90
6940;DHT22;3509;48.510;9.076;2022-08-19T10:34:37;18.40;99.90
6940;DHT22;3509;48.510;9.076;2022-08-19T10:37:04;18.40;99.90
6940;DHT22;3509;48.510;9.076;2022-08-19T10:39:33;18.40;99.90
6940;DHT22;3509;48.510;9.076;2022-08-19T10:42:03;18.40;99.90
6940;DHT22;3509;48.510;9.076;2022-08-19T10:44:29;18.40;99.90
6940;DHT22;3509;48.510;9.076;2022-08-19T10:46:55;18.40;99.90
6940;DHT22;3509;48.510;9.076;2022-08-19T10:49:21;18.50;99.90
6940;DHT22;3509;48.510;9.076;2022-08-19T10:51:48;18.50;99.90
6940;DHT22;3509;48.510;9.076;2022-08-19T10:54:33;18.60;99.90
6940;DHT22;3509;48.510;9.076;2022-08-19T10:57:17;18.50;99.90
6940;DHT22;3509;48.510;9.076;2022-08-19T10:59:43;18.50;99.90
6940;DHT22;3509;48.510;9.076;2022-08-19T11:02:10;18.60;99.90
6940;DHT22;3509;48.510;9.076;2022-08-19T11:04:38;18.70;99.90
6940;DHT22;3509;48.510;9.076;2022-08-19T11:07:04;18.70;99.90
6940;DHT22;3509;48.510;9.076;2022-08-19T11:09:31;18.80;99.90
6940;DHT22;3509;48.510;9.076;2022-08-19T11:11:56;18.80;99.90
6940;DHT22;3509;48.510;9.076;2022-08-19T11:14:23;18.80;99.90
6940;DHT22;3509;48.510;9.076;2022-08-19T11:16:50;18.80;99.90
6940;DHT22;3509;48.510;9.076;2022-08-19T11:19:17;18.90;99.90
6940;DHT22;3509;48.510;9.076;2022-08-19T11:21:46;18.80;99.90
6940;DHT22;3509;48.510;9.076;2022-08-19T11:24:15;18.80;99.90
6940;DHT22;3509;48.510;9.076;2022-08-19T11:26:43;18.80;99.90
6940;DHT22;3509;48.510;9.076;2022-08-19T11:29:10;18.80;99.90
6940;DHT22;3509;48.510;9.076;2022-08-19T11:31:37;18.70;99.90
6940;DHT22;3509;48.510;9.076;2022-08-19T11:34:06;18.70;99.90
6940;DHT22;3509;48.510;9.076;2022-08-19T11:36:33;18.60;99.90
6940;DHT22;3509;48.510;9.076;2022-08-19T11:39:00;18.50;99.90
6940;DHT22;3509;48.510;9.076;2022-08-19T11:41:26;18.50;99.90
6940;DHT22;3509;48.510;9.076;2022-08-19T11:43:53;18.40;99.90
6940;DHT22;3509;48.510;9.076;2022-08-19T11:46:21;18.50;99.90
6940;DHT22;3509;48.510;9.076;2022-08-19T11:48:46;18.50;99.90
6940;DHT22;3509;48.510;9.076;2022-08-19T11:51:18;18.50;99.90
6940;DHT22;3509;48.510;9.076;2022-08-19T11:53:44;18.50;99.90
6940;DHT22;3509;48.510;9.076;2022-08-19T11:56:11;18.50;99.90
6940;DHT22;3509;48.510;9.076;2022-08-19T11:58:38;18.40;99.90
6940;DHT22;3509;48.510;9.076;2022-08-19T12:01:08;18.40;99.90
6940;DHT22;3509;48.510;9.076;2022-08-19T12:03:34;18.50;99.90
6940;DHT22;3509;48.510;9.076;2022-08-19T12:06:05;18.50;99.90
6940;DHT22;3509;48.510;9.076;2022-08-19T12:08:31;18.50;99.90
6940;DHT22;3509;48.510;9.076;2022-08-19T12:10:57;18.40;99.90
6940;DHT22;3509;48.510;9.076;2022-08-19T12:13:23;18.40;99.90
6940;DHT22;3509;48.510;9.076;2022-08-19T12:15:49;18.40;99.90
6940;DHT22;3509;48.510;9.076;2022-08-19T12:18:15;18.40;99.90
6940;DHT22;3509;48.510;9.076;2022-08-19T12:20:42;18.40;99.90
6940;DHT22;3509;48.510;9.076;2022-08-19T12:23:08;18.40;99.90
6940;DHT22;3509;48.510;9.076;2022-08-19T12:25:43;18.30;99.90
6940;DHT22;3509;48.510;9.076;2022-08-19T12:28:13;18.20;99.90
6940;DHT22;3509;48.510;9.076;2022-08-19T12:30:39;18.20;99.90
6940;DHT22;3509;48.510;9.076;2022-08-19T12:33:05;18.20;99.90
6940;DHT22;3509;48.510;9.076;2022-08-19T12:35:30;18.10;99.90
6940;DHT22;3509;48.510;9.076;2022-08-19T12:37:56;18.10;99.90
6940;DHT22;3509;48.510;9.076;2022-08-19T12:40:21;18.10;99.90
6940;DHT22;3509;48.510;9.076;2022-08-19T12:42:47;18.10;99.90
6940;DHT22;3509;48.510;9.076;2022-08-19T12:45:15;18.10;99.90
6940;DHT22;3509;48.510;9.076;2022-08-19T12:47:41;18.10;99.90
6940;DHT22;3509;48.510;9.076;2022-08-19T12:50:07;18.20;99.90
6940;DHT22;3509;48.510;9.076;2022-08-19T12:52:35;18.10;99.90
6940;DHT22;3509;48.510;9.076;2022-08-19T12:55:07;18.20;99.90
6940;DHT22;3509;48.510;9.076;2022-08-19T12:57:32;18.30;99.90
6940;DHT22;3509;48.510;9.076;2022-08-19T13:00:20;18.40;99.90
6940;DHT22;3509;48.510;9.076;2022-08-19T13:02:48;18.60;99.90
6940;DHT22;3509;48.510;9.076;2022-08-19T13:05:27;18.60;99.90
6940;DHT22;3509;48.510;9.076;2022-08-19T13:07:54;18.70;99.90
6940;DHT22;3509;48.510;9.076;2022-08-19T13:10:23;18.70;99.90
6940;DHT22;3509;48.510;9.076;2022-08-19T13:12:50;18.80;99.90
6940;DHT22;3509;48.510;9.076;2022-08-19T13:15:18;18.80;99.90
6940;DHT22;3509;48.510;9.076;2022-08-19T13:17:48;18.70;99.90
6940;DHT22;3509;48.510;9.076;2022-08-19T13:20:16;18.70;99.90
6940;DHT22;3509;48.510;9.076;2022-08-19T13:22:42;18.60;99.90
6940;DHT22;3509;48.510;9.076;2022-08-19T13:25:08;18.60;99.90
6940;DHT22;3509;48.510;9.076;2022-08-19T13:27:35;18.60;99.90
6940;DHT22;3509;48.510;9.076;2022-08-19T13:30:01;18.60;99.90
6940;DHT22;3509;48.510;9.076;2022-08-19T13:32:45;18.60;99.90
6940;DHT22;3509;48.510;9.076;2022-08-19T13:35:29;18.60;99.90
6940;DHT22;3509;48.510;9.076;2022-08-19T13:37:55;18.60;99.90
6940;DHT22;3509;48.510;9.076;2022-08-19T13:40:23;18.60;99.90
6940;DHT22;3509;48.510;9.076;2022-08-19T13:42:53;18.60;99.90
6940;DHT22;3509;48.510;9.076;2022-08-19T13:45:21;18.70;99.90
6940;DHT22;3509;48.510;9.076;2022-08-19T13:47:48;18.60;99.90
6940;DHT22;3509;48.510;9.076;2022-08-19T13:50:18;18.60;99.90
6940;DHT22;3509;48.510;9.076;2022-08-19T13:52:44;18.60;99.90
6940;DHT22;3509;48.510;9.076;2022-08-19T13:55:11;18.60;99.90
6940;DHT22;3509;48.510;9.076;2022-08-19T13:57:37;18.60;99.90
6940;DHT22;3509;48.510;9.076;2022-08-19T14:00:11;18.60;99.90
6940;DHT22;3509;48.510;9.076;2022-08-19T14:02:38;18.60;99.90
6940;DHT22;3509;48.510;9.076;2022-08-19T14:05:09;18.70;99.90
6940;DHT22;3509;48.510;9.076;2022-08-19T14:07:35;18.60;99.90
6940;DHT22;3509;48.510;9.076;2022-08-19T14:10:03;18.60;99.90
6940;DHT22;3509;48.510;9.076;2022-08-19T14:12:28;18.70;99.90
6940;DHT22;3509;48.510;9.076;2022-08-19T14:14:54;18.70;99.90
6940;DHT22;3509;48.510;9.076;2022-08-19T14:17:20;18.70;99.90
6940;DHT22;3509;48.510;9.076;2022-08-19T14:19:46;18.70;99.90
6940;DHT22;3509;48.510;9.076;2022-08-19T14:22:13;18.70;99.90
6940;DHT22;3509;48.510;9.076;2022-08-19T14:24:38;18.60;99.90
6940;DHT22;3509;48.510;9.076;2022-08-19T14:27:07;18.60;99.90
6940;DHT22;3509;48.510;9.076;2022-08-19T14:29:33;18.60;99.90
6940;DHT22;3509;48.510;9.076;2022-08-19T14:31:59;18.60;99.90
6940;DHT22;3509;48.510;9.076;2022-08-19T14:34:26;18.60;99.90
6940;DHT22;3509;48.510;9.076;2022-08-19T14:36:55;18.60;99.90
6940;DHT22;3509;48.510;9.076;2022-08-19T14:39:20;18.60;99.90
6940;DHT22;3509;48.510;9.076;2022-08-19T14:41:46;18.60;99.90
6940;DHT22;3509;48.510;9.076;2022-08-19T14:44:12;18.70;99.90
6940;DHT22;3509;48.510;9.076;2022-08-19T14:46:38;18.70;99.90
6940;DHT22;3509;48.510;9.076;2022-08-19T14:49:04;18.70;99.90
6940;DHT22;3509;48.510;9.076;2022-08-19T14:51:30;18.70;99.90
6940;DHT22;3509;48.510;9.076;2022-08-19T14:53:56;18.90;99.90
6940;DHT22;3509;48.510;9.076;2022-08-19T14:56:25;18.80;99.90
6940;DHT22;3509;48.510;9.076;2022-08-19T14:58:51;18.90;99.90
6940;DHT22;3509;48.510;9.076;2022-08-19T15:01:17;18.90;99.90
6940;DHT22;3509;48.510;9.076;2022-08-19T15:03:46;18.90;99.90
6940;DHT22;3509;48.510;9.076;2022-08-19T15:06:12;19.00;99.90
6940;DHT22;3509;48.510;9.076;2022-08-19T15:08:40;19.10;99.90
6940;DHT22;3509;48.510;9.076;2022-08-19T15:11:12;19.20;99.90
6940;DHT22;3509;48.510;9.076;2022-08-19T15:13:40;19.30;99.90
6940;DHT22;3509;48.510;9.076;2022-08-19T15:16:06;19.50;99.90
6940;DHT22;3509;48.510;9.076;2022-08-19T15:18:32;19.60;99.90
6940;DHT22;3509;48.510;9.076;2022-08-19T15:20:58;19.60;99.90
6940;DHT22;3509;48.510;9.076;2022-08-19T15:23:26;19.60;99.90
6940;DHT22;3509;48.510;9.076;2022-08-19T15:25:52;19.60;99.90
6940;DHT22;3509;48.510;9.076;2022-08-19T15:28:21;19.60;99.90
6940;DHT22;3509;48.510;9.076;2022-08-19T15:30:47;19.60;99.90
6940;DHT22;3509;48.510;9.076;2022-08-19T15:33:12;19.60;99.90
6940;DHT22;3509;48.510;9.076;2022-08-19T15:35:40;19.70;99.90
6940;DHT22;3509;48.510;9.076;2022-08-19T15:38:07;19.80;99.90
6940;DHT22;3509;48.510;9.076;2022-08-19T15:40:33;19.90;99.90
6940;DHT22;3509;48.510;9.076;2022-08-19T15:42:59;19.90;99.90
6940;DHT22;3509;48.510;9.076;2022-08-19T15:45:26;20.00;99.90
6940;DHT22;3509;48.510;9.076;2022-08-19T15:48:01;20.00;99.90
6940;DHT22;3509;48.510;9.076;2022-08-19T15:50:27;20.00;99.90
6940;DHT22;3509;48.510;9.076;2022-08-19T15:53:06;19.90;99.90
6940;DHT22;3509;48.510;9.076;2022-08-19T15:55:35;19.90;99.90
6940;DHT22;3509;48.510;9.076;2022-08-19T15:58:04;19.90;99.90
6940;DHT22;3509;48.510;9.076;2022-08-19T16:00:49;19.90;99.90
6940;DHT22;3509;48.510;9.076;2022-08-19T16:03:33;20.00;99.90
6940;DHT22;3509;48.510;9.076;2022-08-19T16:06:17;20.00;99.90
6940;DHT22;3509;48.510;9.076;2022-08-19T16:08:53;20.10;99.90
6940;DHT22;3509;48.510;9.076;2022-08-19T16:11:20;20.10;99.90
6940;DHT22;3509;48.510;9.076;2022-08-19T16:13:48;20.20;99.90
6940;DHT22;3509;48.510;9.076;2022-08-19T16:16:18;20.40;99.90
6940;DHT22;3509;48.510;9.076;2022-08-19T16:18:44;20.60;99.90